Time;durP1;ratioP1;P1;durP2;ratioP2;P2;SDS_P1;SDS_P2;PMS_P1;PMS_P2;Temp;Humidity;BMP_temperature;BMP_pressure;BME280_temperature;BME280_humidity;BME280_pressure;Samples;Min_cycle;Max_cycle;Signal;HPM_P1;HPM_P2
2023/08/08 00:03:50;;;;;;;5.63;3.97;;;;;;;;;;2615050;54;20427;-75
2023/08/08 00:09:19;;;;;;;7.63;3.87;;;;;;;;;;2615379;54;20932;-75
2023/08/08 00:14:49;;;;;;;3.43;3.13;;;;;;;;;;2615569;54;20512;-75
2023/08/08 00:20:19;;;;;;;5.50;3.67;;;;;;;;;;2615510;54;20366;-74
2023/08/08 00:25:50;;;;;;;7.60;3.70;;;;;;;;;;2615551;54;21150;-74
2023/08/08 00:31:20;;;;;;;3.73;3.27;;;;;;;;;;2615254;54;20500;-74
2023/08/08 00:36:49;;;;;;;5.70;3.47;;;;;;;;;;2615216;54;20511;-74
2023/08/08 00:42:19;;;;;;;4.83;3.00;;;;;;;;;;2614764;54;20406;-73
2023/08/08 00:47:49;;;;;;;4.13;3.73;;;;;;;;;;2615373;54;20422;-75
2023/08/08 00:53:20;;;;;;;4.03;3.63;;;;;;;;;;2615481;54;20426;-75
2023/08/08 00:58:50;;;;;;;3.70;3.40;;;;;;;;;;2615262;54;20435;-74
2023/08/08 01:04:20;;;;;;;3.83;3.50;;;;;;;;;;2615566;31;20848;-74
2023/08/08 01:09:53;;;;;;;4.77;3.87;;;;;;;;;;2615279;46;20358;-74
2023/08/08 01:15:24;;;;;;;8.60;3.90;;;;;;;;;;2615044;54;20383;-73
2023/08/08 01:20:53;;;;;;;7.30;3.73;;;;;;;;;;2615055;54;20407;-72
2023/08/08 01:26:23;;;;;;;5.37;3.97;;;;;;;;;;2615402;54;20398;-73
2023/08/08 01:31:53;;;;;;;4.33;2.93;;;;;;;;;;2615036;54;20387;-72
2023/08/08 01:43:31;;;;;;;6.80;4.43;;;;;;;;;;2613308;54;20354;-73
2023/08/08 01:49:00;;;;;;;5.07;3.37;;;;;;;;;;2613532;54;20355;-72
2023/08/08 01:54:29;;;;;;;3.83;3.50;;;;;;;;;;2613439;54;20403;-72
2023/08/08 01:59:58;;;;;;;4.30;3.43;;;;;;;;;;2613317;54;20474;-72
2023/08/08 02:05:27;;;;;;;4.27;3.87;;;;;;;;;;2613507;54;20386;-73
2023/08/08 02:10:56;;;;;;;6.67;4.40;;;;;;;;;;2613614;54;20468;-72
2023/08/08 02:16:26;;;;;;;7.10;3.77;;;;;;;;;;2613539;54;20415;-73
2023/08/08 02:21:55;;;;;;;12.03;4.37;;;;;;;;;;2616235;54;20371;-76
2023/08/08 02:27:25;;;;;;;4.73;3.60;;;;;;;;;;2616616;54;20508;-76
2023/08/08 02:32:54;;;;;;;3.97;3.63;;;;;;;;;;2616256;54;20479;-76
2023/08/08 02:38:24;;;;;;;5.87;4.60;;;;;;;;;;2616497;54;20961;-76
2023/08/08 02:43:54;;;;;;;6.03;4.03;;;;;;;;;;2616614;54;20909;-75
2023/08/08 02:49:24;;;;;;;3.60;3.20;;;;;;;;;;2616466;54;20414;-77
2023/08/08 02:54:53;;;;;;;5.50;5.00;;;;;;;;;;2616452;54;20390;-76
2023/08/08 02:57:55;;;;;;;4.17;3.77;;;;;;;;;;2615807;54;20415;-75
2023/08/08 03:00:21;;;;;;;5.50;4.63;;;;;;;;;;2615803;47;20993;-75
2023/08/08 03:05:50;;;;;;;4.77;4.17;;;;;;;;;;2617142;54;20418;-76
2023/08/08 03:11:20;;;;;;;10.73;3.97;;;;;;;;;;2616638;54;20929;-75
2023/08/08 03:16:49;;;;;;;5.27;3.80;;;;;;;;;;2617258;54;20941;-75
2023/08/08 03:22:19;;;;;;;3.30;2.63;;;;;;;;;;2617088;54;20383;-76
2023/08/08 03:27:49;;;;;;;5.80;4.00;;;;;;;;;;2617125;54;20443;-75
2023/08/08 03:33:18;;;;;;;7.63;4.90;;;;;;;;;;2615283;54;20394;-75
2023/08/08 03:38:48;;;;;;;7.50;3.97;;;;;;;;;;2615720;54;21067;-74
2023/08/08 03:44:18;;;;;;;8.60;4.47;;;;;;;;;;2615453;54;20383;-74
2023/08/08 03:49:47;;;;;;;9.30;4.90;;;;;;;;;;2615301;54;20427;-73
2023/08/08 03:55:17;;;;;;;6.93;4.60;;;;;;;;;;2615801;54;20463;-74
2023/08/08 04:00:58;;;;;;;7.50;4.93;;;;;;;;;;2613518;54;20419;-74
2023/08/08 04:06:27;;;;;;;5.70;4.27;;;;;;;;;;2613461;54;20992;-73
2023/08/08 04:11:56;;;;;;;8.60;5.60;;;;;;;;;;2613703;54;20413;-74
2023/08/08 04:17:25;;;;;;;11.23;4.87;;;;;;;;;;2612714;54;20407;-73
2023/08/08 04:22:54;;;;;;;7.03;4.90;;;;;;;;;;2612582;54;20409;-74
2023/08/08 04:28:24;;;;;;;5.93;4.30;;;;;;;;;;2613635;54;20391;-74
2023/08/08 04:33:58;;;;;;;7.60;4.37;;;;;;;;;;2612809;47;20376;-72
2023/08/08 04:39:28;;;;;;;7.30;5.33;;;;;;;;;;2614985;54;20524;-74
2023/08/08 04:44:57;;;;;;;8.37;5.40;;;;;;;;;;2615697;39;20921;-74
2023/08/08 04:47:42;;;;;;;8.87;5.10;;;;;;;;;;2614814;54;20392;-74
2023/08/08 04:50:08;;;;;;;9.73;5.73;;;;;;;;;;2614685;54;20953;-75
2023/08/08 04:55:37;;;;;;;12.83;6.33;;;;;;;;;;2614928;54;20378;-74
2023/08/08 05:04:44;;;;;;;10.17;6.53;;;;;;;;;;2615139;54;20409;-75
2023/08/08 05:10:14;;;;;;;8.77;6.93;;;;;;;;;;2615289;54;20483;-73
2023/08/08 05:15:43;;;;;;;13.23;7.83;;;;;;;;;;2614877;54;20407;-74
2023/08/08 05:21:13;;;;;;;11.13;7.17;;;;;;;;;;2614987;54;21381;-73
2023/08/08 05:26:43;;;;;;;11.20;8.07;;;;;;;;;;2614844;54;20382;-73
2023/08/08 05:32:12;;;;;;;13.47;8.27;;;;;;;;;;2614665;54;20370;-74
2023/08/08 05:37:42;;;;;;;25.00;11.60;;;;;;;;;;2614791;54;20352;-74
2023/08/08 05:43:16;;;;;;;17.80;12.00;;;;;;;;;;2614602;54;20363;-75
2023/08/08 05:48:46;;;;;;;15.60;12.30;;;;;;;;;;2614843;54;20394;-74
2023/08/08 05:54:16;;;;;;;20.63;12.30;;;;;;;;;;2615221;54;20382;-73
2023/08/08 05:59:46;;;;;;;14.97;12.60;;;;;;;;;;2614757;54;20358;-73
2023/08/08 06:05:17;;;;;;;17.50;12.40;;;;;;;;;;2614606;54;20464;-73
2023/08/08 06:10:46;;;;;;;25.23;15.17;;;;;;;;;;2614825;54;20495;-73
2023/08/08 06:16:16;;;;;;;25.50;15.50;;;;;;;;;;2615031;54;20483;-73
2023/08/08 06:21:46;;;;;;;23.00;16.07;;;;;;;;;;2614530;54;21250;-74
2023/08/08 06:27:16;;;;;;;18.73;14.07;;;;;;;;;;2615553;39;20915;-74
2023/08/08 06:32:46;;;;;;;17.27;13.90;;;;;;;;;;2614619;54;20559;-75
2023/08/08 06:38:15;;;;;;;21.57;15.60;;;;;;;;;;2614668;46;20403;-74
2023/08/08 06:43:45;;;;;;;21.00;16.00;;;;;;;;;;2615423;54;20382;-74
2023/08/08 06:49:14;;;;;;;19.47;14.53;;;;;;;;;;2615856;39;20755;-74
2023/08/08 06:54:44;;;;;;;24.53;15.80;;;;;;;;;;2615528;54;20387;-75
2023/08/08 07:00:14;;;;;;;22.83;14.63;;;;;;;;;;2615287;54;20371;-73
2023/08/08 07:05:44;;;;;;;21.93;16.23;;;;;;;;;;2615429;54;20398;-73
2023/08/08 07:11:13;;;;;;;17.73;15.53;;;;;;;;;;2615070;54;20362;-72
2023/08/08 07:16:43;;;;;;;22.40;17.97;;;;;;;;;;2614799;54;20516;-71
2023/08/08 07:22:12;;;;;;;20.47;13.80;;;;;;;;;;2614921;54;20394;-73
2023/08/08 07:27:42;;;;;;;19.40;15.40;;;;;;;;;;2615176;54;20394;-74
2023/08/08 07:33:13;;;;;;;19.83;16.17;;;;;;;;;;2615019;54;20415;-73
2023/08/08 07:38:42;;;;;;;20.47;13.30;;;;;;;;;;2615081;54;20391;-74
2023/08/08 07:44:12;;;;;;;14.13;11.80;;;;;;;;;;2614989;54;20403;-74
2023/08/08 07:49:42;;;;;;;16.00;14.50;;;;;;;;;;2614968;54;20375;-73
2023/08/08 07:55:11;;;;;;;19.37;13.30;;;;;;;;;;2615257;54;20386;-73
2023/08/08 08:06:49;;;;;;;13.33;10.33;;;;;;;;;;2615024;54;21158;-74
2023/08/08 08:12:19;;;;;;;14.50;10.90;;;;;;;;;;2614970;54;20406;-74
2023/08/08 08:17:49;;;;;;;19.67;10.97;;;;;;;;;;2614752;54;20378;-74
2023/08/08 08:23:18;;;;;;;10.80;8.00;;;;;;;;;;2614807;54;20387;-74
2023/08/08 08:28:48;;;;;;;15.43;8.83;;;;;;;;;;2615294;54;20439;-75
2023/08/08 08:34:17;;;;;;;10.10;7.40;;;;;;;;;;2615091;54;20379;-75
2023/08/08 08:39:47;;;;;;;8.40;7.60;;;;;;;;;;2615628;54;20391;-75
2023/08/08 08:45:18;;;;;;;11.57;10.30;;;;;;;;;;2615106;54;20358;-74
2023/08/08 08:50:49;;;;;;;10.60;7.00;;;;;;;;;;2614417;54;20387;-74
2023/08/08 08:56:19;;;;;;;6.93;6.23;;;;;;;;;;2615412;39;21077;-74
2023/08/08 09:11:18;;;;;;;6.87;5.93;;;;;;;;;;2612965;54;20355;-74
2023/08/08 09:16:48;;;;;;;6.53;5.93;;;;;;;;;;2614064;39;20986;-74
2023/08/08 09:22:18;;;;;;;7.73;5.53;;;;;;;;;;2613104;54;20395;-73
2023/08/08 09:27:47;;;;;;;14.03;6.50;;;;;;;;;;2613591;54;20371;-72
2023/08/08 09:33:18;;;;;;;7.03;5.23;;;;;;;;;;2614020;54;20486;-75
2023/08/08 09:38:47;;;;;;;6.10;5.60;;;;;;;;;;2615438;54;20468;-76
2023/08/08 09:44:17;;;;;;;7.50;6.03;;;;;;;;;;2616153;54;20389;-75
2023/08/08 09:49:47;;;;;;;6.40;5.90;;;;;;;;;;2616172;54;20916;-75
2023/08/08 09:55:17;;;;;;;7.10;6.50;;;;;;;;;;2615721;54;20410;-75
2023/08/08 10:00:46;;;;;;;5.83;5.43;;;;;;;;;;2615885;54;20426;-75
2023/08/08 10:06:16;;;;;;;7.20;6.50;;;;;;;;;;2615774;54;20387;-75
2023/08/08 10:11:46;;;;;;;6.53;5.93;;;;;;;;;;2615543;54;20405;-75
2023/08/08 10:17:16;;;;;;;7.90;7.10;;;;;;;;;;2617428;39;20777;-75
2023/08/08 10:22:46;;;;;;;6.60;6.10;;;;;;;;;;2616523;54;20475;-76
2023/08/08 10:28:19;;;;;;;6.33;5.67;;;;;;;;;;2616829;54;20415;-76
2023/08/08 10:33:49;;;;;;;7.63;6.87;;;;;;;;;;2615559;54;20517;-74
2023/08/08 10:39:20;;;;;;;7.60;7.10;;;;;;;;;;2615384;54;20390;-74
2023/08/08 10:45:00;;;;;;;6.50;6.00;;;;;;;;;;2615568;54;20371;-74
2023/08/08 10:47:45;;;;;;;6.87;6.37;;;;;;;;;;2615647;39;20801;-74
2023/08/08 10:50:12;;;;;;;9.23;6.20;;;;;;;;;;2614505;47;20431;-74
2023/08/08 10:55:44;;;;;;;6.80;6.03;;;;;;;;;;2615680;54;20374;-74
2023/08/08 11:07:21;;;;;;;6.90;6.20;;;;;;;;;;2614991;54;20399;-74
2023/08/08 11:13:01;;;;;;;6.40;6.00;;;;;;;;;;2615388;54;20484;-74
2023/08/08 11:18:30;;;;;;;6.33;5.70;;;;;;;;;;2614947;54;20506;-74
2023/08/08 11:24:00;;;;;;;6.40;6.00;;;;;;;;;;2615179;54;20371;-74
2023/08/08 11:29:31;;;;;;;9.47;7.53;;;;;;;;;;2615268;54;20499;-74
2023/08/08 11:35:00;;;;;;;7.33;6.37;;;;;;;;;;2615092;54;20888;-74
2023/08/08 11:40:30;;;;;;;6.30;5.80;;;;;;;;;;2615113;54;20387;-73
2023/08/08 11:46:03;;;;;;;11.83;5.80;;;;;;;;;;2615713;54;20367;-74
2023/08/08 11:51:34;;;;;;;8.53;6.27;;;;;;;;;;2615096;39;20767;-75
2023/08/08 11:57:04;;;;;;;7.07;6.40;;;;;;;;;;2616551;54;20391;-75
2023/08/08 12:06:14;;;;;;;6.60;6.10;;;;;;;;;;2616583;54;20411;-76
2023/08/08 12:11:44;;;;;;;6.67;6.17;;;;;;;;;;2616199;54;20383;-76
2023/08/08 12:17:15;;;;;;;7.10;6.60;;;;;;;;;;2616610;54;20386;-74
2023/08/08 12:22:45;;;;;;;6.67;6.27;;;;;;;;;;2616608;54;20363;-75
2023/08/08 12:28:14;;;;;;;8.07;7.23;;;;;;;;;;2616890;54;20362;-75
2023/08/08 12:33:45;;;;;;;7.77;7.17;;;;;;;;;;2616652;54;20422;-76
2023/08/08 12:39:15;;;;;;;8.13;7.53;;;;;;;;;;2617235;39;20802;-76
2023/08/08 12:44:46;;;;;;;8.20;7.50;;;;;;;;;;2616687;54;20378;-76
2023/08/08 12:50:16;;;;;;;7.77;7.17;;;;;;;;;;2616491;54;20379;-76
2023/08/08 12:55:45;;;;;;;8.53;7.77;;;;;;;;;;2616540;54;20932;-76
2023/08/08 13:01:15;;;;;;;7.80;7.30;;;;;;;;;;2617029;54;20426;-75
2023/08/08 13:06:44;;;;;;;7.73;7.10;;;;;;;;;;2616334;54;20411;-76
2023/08/08 13:12:14;;;;;;;7.90;7.10;;;;;;;;;;2616519;54;20431;-75
2023/08/08 13:17:44;;;;;;;9.47;8.50;;;;;;;;;;2616273;54;20439;-75
2023/08/08 13:23:13;;;;;;;8.50;7.80;;;;;;;;;;2615775;54;20367;-73
2023/08/08 13:28:43;;;;;;;8.30;7.70;;;;;;;;;;2614987;54;20423;-72
2023/08/08 13:34:13;;;;;;;8.30;7.60;;;;;;;;;;2615119;54;20387;-72
2023/08/08 13:39:44;;;;;;;8.60;8.07;;;;;;;;;;2614768;54;20384;-73
2023/08/08 13:45:14;;;;;;;7.33;6.93;;;;;;;;;;2614869;54;20418;-71
2023/08/08 13:50:44;;;;;;;8.80;7.90;;;;;;;;;;2615347;39;20729;-73
2023/08/08 13:56:14;;;;;;;7.83;7.43;;;;;;;;;;2615140;39;20899;-73
2023/08/08 14:01:43;;;;;;;10.07;8.53;;;;;;;;;;2614346;54;20366;-72
2023/08/08 14:07:13;;;;;;;8.47;7.87;;;;;;;;;;2615346;39;20736;-72
2023/08/08 14:12:43;;;;;;;8.60;7.80;;;;;;;;;;2614917;39;20763;-70
2023/08/08 14:18:13;;;;;;;7.70;7.13;;;;;;;;;;2614497;54;20354;-70
2023/08/08 14:23:44;;;;;;;7.40;7.00;;;;;;;;;;2614934;39;20846;-72
2023/08/08 14:29:13;;;;;;;8.10;7.60;;;;;;;;;;2614316;54;20471;-73
2023/08/08 14:34:43;;;;;;;7.07;6.50;;;;;;;;;;2614896;54;20386;-72
2023/08/08 14:40:12;;;;;;;7.60;6.90;;;;;;;;;;2614312;54;21969;-72
2023/08/08 14:45:42;;;;;;;8.40;7.90;;;;;;;;;;2614588;54;20367;-72
2023/08/08 14:51:16;;;;;;;7.70;7.20;;;;;;;;;;2614094;54;20387;-72
2023/08/08 14:56:45;;;;;;;7.33;6.60;;;;;;;;;;2614381;54;20394;-73
2023/08/08 15:08:24;;;;;;;7.33;6.93;;;;;;;;;;2614929;54;20967;-74
2023/08/08 15:13:54;;;;;;;7.73;7.23;;;;;;;;;;2616258;39;20790;-75
2023/08/08 15:19:23;;;;;;;7.67;7.27;;;;;;;;;;2615192;54;20496;-73
2023/08/08 15:24:53;;;;;;;8.60;8.20;;;;;;;;;;2615134;54;20418;-74
2023/08/08 15:30:22;;;;;;;7.37;6.73;;;;;;;;;;2615102;54;20379;-73
2023/08/08 15:35:52;;;;;;;7.30;6.80;;;;;;;;;;2615004;54;20407;-73
2023/08/08 15:41:22;;;;;;;7.60;7.20;;;;;;;;;;2614777;54;20375;-74
2023/08/08 15:46:51;;;;;;;7.50;7.00;;;;;;;;;;2615319;54;20363;-74
2023/08/08 15:52:21;;;;;;;7.33;6.87;;;;;;;;;;2614710;54;20568;-74
2023/08/08 15:57:52;;;;;;;6.97;6.67;;;;;;;;;;2614860;54;20411;-74
2023/08/08 16:07:02;;;;;;;6.90;6.60;;;;;;;;;;2616593;54;20407;-75
2023/08/08 16:12:32;;;;;;;6.87;6.40;;;;;;;;;;2616363;54;20479;-76
2023/08/08 16:18:01;;;;;;;7.27;6.67;;;;;;;;;;2616628;54;20387;-75
2023/08/08 16:23:31;;;;;;;7.00;6.60;;;;;;;;;;2616306;54;20394;-71
2023/08/08 16:29:01;;;;;;;7.90;7.60;;;;;;;;;;2615636;54;20412;-72
2023/08/08 16:34:31;;;;;;;8.13;7.53;;;;;;;;;;2615233;54;20355;-73
2023/08/08 16:40:01;;;;;;;7.17;6.67;;;;;;;;;;2615008;54;20362;-73
2023/08/08 16:45:31;;;;;;;6.77;6.47;;;;;;;;;;2615210;54;20414;-72
2023/08/08 16:51:00;;;;;;;6.33;6.00;;;;;;;;;;2614700;54;20484;-72
2023/08/08 16:56:30;;;;;;;6.37;6.07;;;;;;;;;;2615142;54;20386;-71
2023/08/08 17:02:00;;;;;;;7.37;6.87;;;;;;;;;;2615094;54;20407;-72
2023/08/08 17:07:29;;;;;;;7.20;6.80;;;;;;;;;;2614934;54;20482;-72
2023/08/08 17:12:59;;;;;;;6.60;6.30;;;;;;;;;;2615092;54;20358;-72
2023/08/08 17:18:28;;;;;;;7.97;7.43;;;;;;;;;;2614940;54;20471;-75
2023/08/08 17:23:58;;;;;;;6.90;6.50;;;;;;;;;;2614764;54;20414;-74
2023/08/08 17:29:28;;;;;;;7.07;6.00;;;;;;;;;;2614855;54;20379;-76
2023/08/08 17:34:57;;;;;;;6.27;5.87;;;;;;;;;;2615391;54;20387;-75
2023/08/08 17:40:27;;;;;;;7.73;7.33;;;;;;;;;;2614513;54;21222;-75
2023/08/08 17:46:01;;;;;;;7.70;7.03;;;;;;;;;;2614908;54;20419;-74
2023/08/08 17:51:30;;;;;;;6.57;6.13;;;;;;;;;;2615110;54;20391;-75
2023/08/08 17:57:00;;;;;;;8.27;7.67;;;;;;;;;;2615503;54;20347;-76
2023/08/08 18:02:30;;;;;;;8.83;6.60;;;;;;;;;;2615777;54;20399;-74
2023/08/08 18:11:40;;;;;;;7.10;6.43;;;;;;;;;;2615160;54;20427;-75
2023/08/08 18:17:10;;;;;;;6.67;6.17;;;;;;;;;;2615352;54;20956;-75
2023/08/08 18:22:40;;;;;;;5.70;5.30;;;;;;;;;;2615335;54;20398;-76
2023/08/08 18:28:10;;;;;;;5.87;5.37;;;;;;;;;;2614947;54;20386;-76
2023/08/08 18:33:42;;;;;;;10.67;6.30;;;;;;;;;;2615091;54;20427;-74
2023/08/08 18:39:12;;;;;;;6.93;6.43;;;;;;;;;;2615866;54;20386;-75
2023/08/08 18:44:42;;;;;;;6.10;5.57;;;;;;;;;;2615735;54;20418;-74
2023/08/08 18:50:12;;;;;;;6.53;5.93;;;;;;;;;;2616018;39;20762;-74
2023/08/08 18:55:45;;;;;;;7.60;6.77;;;;;;;;;;2615421;54;20498;-74
2023/08/08 19:01:14;;;;;;;7.03;6.53;;;;;;;;;;2617020;54;20367;-76
2023/08/08 19:06:44;;;;;;;8.27;6.20;;;;;;;;;;2617425;54;20410;-75
2023/08/08 19:12:13;;;;;;;6.67;6.17;;;;;;;;;;2617456;54;20395;-76
2023/08/08 19:17:43;;;;;;;7.37;6.13;;;;;;;;;;2617262;54;20371;-75
2023/08/08 19:23:14;;;;;;;7.17;6.57;;;;;;;;;;2618009;39;20777;-76
2023/08/08 19:28:43;;;;;;;5.20;4.70;;;;;;;;;;2617532;54;20431;-75
2023/08/08 19:34:13;;;;;;;6.30;5.70;;;;;;;;;;2617487;54;20387;-75
2023/08/08 19:39:43;;;;;;;7.20;5.90;;;;;;;;;;2617384;54;20497;-76
2023/08/08 19:45:13;;;;;;;8.10;6.03;;;;;;;;;;2616812;54;20363;-76
2023/08/08 19:50:43;;;;;;;7.10;5.70;;;;;;;;;;2616786;54;20491;-77
2023/08/08 19:56:12;;;;;;;8.97;7.10;;;;;;;;;;2615680;54;20395;-76
2023/08/08 20:01:43;;;;;;;7.00;6.30;;;;;;;;;;2615075;54;21043;-75
2023/08/08 20:07:13;;;;;;;8.37;6.13;;;;;;;;;;2615000;54;20507;-73
2023/08/08 20:12:42;;;;;;;5.77;5.27;;;;;;;;;;2615080;54;20403;-73
2023/08/08 20:18:12;;;;;;;6.60;5.43;;;;;;;;;;2615144;54;20418;-75
2023/08/08 20:23:42;;;;;;;6.77;6.03;;;;;;;;;;2615496;54;20395;-73
2023/08/08 20:29:12;;;;;;;16.60;8.27;;;;;;;;;;2615299;54;20363;-73
2023/08/08 20:34:41;;;;;;;9.87;8.10;;;;;;;;;;2615010;54;20562;-72
2023/08/08 20:40:11;;;;;;;9.20;7.90;;;;;;;;;;2614981;54;20390;-72
2023/08/08 20:45:42;;;;;;;8.40;7.50;;;;;;;;;;2615136;54;20366;-71
2023/08/08 20:51:11;;;;;;;9.93;8.83;;;;;;;;;;2614909;54;22444;-73
2023/08/08 20:56:41;;;;;;;10.00;9.00;;;;;;;;;;2615343;54;20383;-71
2023/08/08 21:02:10;;;;;;;10.00;9.00;;;;;;;;;;2614646;54;20402;-72
2023/08/08 21:13:47;;;;;;;10.87;8.70;;;;;;;;;;2615418;54;20467;-76
2023/08/08 21:19:17;;;;;;;9.67;8.73;;;;;;;;;;2615863;54;20430;-76
2023/08/08 21:24:47;;;;;;;10.80;9.27;;;;;;;;;;2615428;54;20475;-77
2023/08/08 21:30:16;;;;;;;8.80;8.00;;;;;;;;;;2615256;54;20408;-76
2023/08/08 21:35:46;;;;;;;8.77;7.23;;;;;;;;;;2616211;54;20351;-77
2023/08/08 21:41:15;;;;;;;7.73;6.47;;;;;;;;;;2615269;54;20379;-77
2023/08/08 21:46:45;;;;;;;6.70;5.63;;;;;;;;;;2615473;54;20396;-76
2023/08/08 21:52:15;;;;;;;7.03;5.00;;;;;;;;;;2614633;46;20367;-74
2023/08/08 21:57:45;;;;;;;7.47;5.60;;;;;;;;;;2615025;54;20877;-75
2023/08/08 22:03:14;;;;;;;7.57;5.47;;;;;;;;;;2614884;54;20929;-76
2023/08/08 22:12:25;;;;;;;4.07;3.27;;;;;;;;;;2614792;54;20411;-75
2023/08/08 22:17:55;;;;;;;5.27;4.20;;;;;;;;;;2614988;54;21086;-76
2023/08/08 22:23:25;;;;;;;6.30;4.10;;;;;;;;;;2614676;54;20415;-75
2023/08/08 22:28:55;;;;;;;6.40;4.13;;;;;;;;;;2614835;46;20370;-75
2023/08/08 22:34:24;;;;;;;5.17;3.93;;;;;;;;;;2614683;54;20928;-76
2023/08/08 22:39:54;;;;;;;5.03;3.70;;;;;;;;;;2614306;54;20957;-74
2023/08/08 22:45:24;;;;;;;5.63;4.17;;;;;;;;;;2614551;54;20383;-75
2023/08/08 22:48:08;;;;;;;4.13;3.10;;;;;;;;;;2614847;54;20996;-75
2023/08/08 22:50:36;;;;;;;7.30;3.80;;;;;;;;;;2613659;47;21000;-75
2023/08/08 22:56:05;;;;;;;5.13;4.20;;;;;;;;;;2614834;54;20411;-74
2023/08/08 23:01:35;;;;;;;5.10;3.10;;;;;;;;;;2614215;54;20456;-74
2023/08/08 23:07:05;;;;;;;4.13;3.30;;;;;;;;;;2614535;54;20391;-75
2023/08/08 23:16:15;;;;;;;3.27;2.77;;;;;;;;;;2614761;39;20895;-74
2023/08/08 23:21:45;;;;;;;2.90;2.20;;;;;;;;;;2614775;54;20416;-74
2023/08/08 23:27:15;;;;;;;3.47;1.80;;;;;;;;;;2615613;54;20480;-75
2023/08/08 23:32:44;;;;;;;2.83;1.90;;;;;;;;;;2615307;54;20343;-75
2023/08/08 23:38:14;;;;;;;2.97;2.00;;;;;;;;;;2615222;54;20395;-75
2023/08/08 23:43:44;;;;;;;3.03;2.13;;;;;;;;;;2615355;54;20375;-75
2023/08/08 23:49:14;;;;;;;7.50;2.40;;;;;;;;;;2615263;54;20414;-74
2023/08/08 23:54:44;;;;;;;3.30;2.60;;;;;;;;;;2615274;54;20955;-74
